This is the latest recevied weather packets stored in our database for station/object E25XKG-2. If no packets are shown the sender has not sent any weather packets the latest 10 day(s).
| Time | Temp. | Humidity | Pressure | Rain* | Wind** | Luminosity | Snow |
|---|---|---|---|---|---|---|---|
| 1777900196 | 40° C | 34% | 1002 hPa | - | - | 0 W/m² | - |
| 1777898370 | 40° C | 33% | 1002 hPa | - | - | 0 W/m² | - |
| 1777896545 | 40.56° C | 32% | 1001 hPa | - | - | 0 W/m² | - |
| 1777894720 | 41.11° C | 31% | 1001 hPa | - | - | 0 W/m² | - |
| 1777892894 | 41.11° C | 30% | 1000 hPa | - | - | 0 W/m² | - |
| 1777891069 | 41.67° C | 30% | 1000 hPa | - | - | 0 W/m² | - |
| 1777889243 | 41.67° C | 31% | 1000 hPa | - | - | 0 W/m² | - |
| 1777887418 | 42.22° C | 32% | 999 hPa | - | - | 0 W/m² | - |
| 1777885592 | 42.22° C | 32% | 999 hPa | - | - | 0 W/m² | - |
| 1777883767 | 41.67° C | 33% | 1000 hPa | - | - | 0 W/m² | - |
| 1777881942 | 41.11° C | 34% | 1000 hPa | - | - | 0 W/m² | - |
| 1777880116 | 41.11° C | 35% | 1000 hPa | - | - | 0 W/m² | - |
| 1777878291 | 40.56° C | 35% | 1001 hPa | - | - | 0 W/m² | - |
| 1777876463 | 40° C | 36% | 1002 hPa | - | - | 0 W/m² | - |
| 1777874638 | 39.44° C | 38% | 1003 hPa | - | - | 0 W/m² | - |
| 1777872812 | 38.33° C | 39% | 1003 hPa | - | - | 0 W/m² | - |
| 1777870987 | 37.78° C | 40% | 1004 hPa | - | - | 0 W/m² | - |
| 1777869161 | 37.22° C | 41% | 1004 hPa | - | - | 0 W/m² | - |
| 1777867336 | 36.67° C | 42% | 1004 hPa | - | - | 0 W/m² | - |
| 1777865511 | 36.67° C | 42% | 1005 hPa | - | - | 0 W/m² | - |
| 1777836565 | 37.22° C | 36% | 1002 hPa | - | - | 0 W/m² | - |
| 1777825612 | 39.44° C | 33% | 1002 hPa | - | - | 0 W/m² | - |
| 1777821961 | 40° C | 32% | 1002 hPa | - | - | 0 W/m² | - |
| 1777816485 | 41.11° C | 31% | 1000 hPa | - | - | 0 W/m² | - |
| 1777805532 | 43.33° C | 28% | 998 hPa | - | - | 0 W/m² | - |
* Rain since midnight (hover to see other rain measurements)
** Current wind speed in m/s (hover to see current wind gust speed)